createdAt,value
2018-09-23T00:00:09.091Z,97709.25
2018-09-23T00:02:36.626Z,97713.20
2018-09-23T00:05:04.205Z,97713.15
2018-09-23T00:07:31.632Z,97711.02
2018-09-23T00:09:59.100Z,97715.75
2018-09-23T00:12:26.761Z,97720.36
2018-09-23T00:14:54.212Z,97721.78
2018-09-23T00:17:21.656Z,97721.36
2018-09-23T00:19:49.137Z,97722.06
2018-09-23T00:22:16.641Z,97720.22
2018-09-23T00:24:44.084Z,97723.78
2018-09-23T00:27:11.543Z,97716.66
2018-09-23T00:29:38.959Z,97723.91
2018-09-23T00:32:06.401Z,97728.88
2018-09-23T00:34:33.808Z,97718.64
2018-09-23T00:37:01.271Z,97716.66
2018-09-23T00:39:28.672Z,97717.34
2018-09-23T00:41:56.096Z,97716.20
2018-09-23T00:44:23.500Z,97709.91
2018-09-23T00:46:50.934Z,97709.41
2018-09-23T00:49:18.464Z,97710.09
2018-09-23T00:51:45.887Z,97708.11
2018-09-23T00:54:13.315Z,97708.11
2018-09-23T00:56:40.720Z,97705.17
2018-09-23T00:59:08.154Z,97702.50
2018-09-23T01:01:35.610Z,97696.00
2018-09-23T01:04:03.131Z,97696.00
2018-09-23T01:06:30.564Z,97699.82
2018-09-23T01:08:58.057Z,97692.97
2018-09-23T01:11:25.533Z,97690.39
2018-09-23T01:13:53.034Z,97689.10
2018-09-23T01:16:20.541Z,97695.12
2018-09-23T01:18:48.007Z,97690.20
2018-09-23T01:21:15.562Z,97697.80
2018-09-23T01:23:42.999Z,97700.52
2018-09-23T01:26:11.306Z,97699.50
2018-09-23T01:28:38.741Z,97698.49
2018-09-23T01:31:06.175Z,97700.38
2018-09-23T01:33:33.649Z,97700.88
2018-09-23T01:36:01.045Z,97698.02
2018-09-23T01:38:28.652Z,97693.10
2018-09-23T01:40:56.079Z,97688.97
2018-09-23T01:43:23.654Z,97685.70
2018-09-23T01:45:51.442Z,97685.88
2018-09-23T01:48:18.881Z,97688.58
2018-09-23T01:50:46.269Z,97681.45
2018-09-23T01:53:13.760Z,97682.68
2018-09-23T01:55:41.211Z,97683.55
2018-09-23T01:58:08.857Z,97683.16
2018-09-23T02:00:36.264Z,97672.81
2018-09-23T02:03:03.858Z,97667.53
2018-09-23T02:05:32.363Z,97669.78
2018-09-23T02:07:59.828Z,97676.06
2018-09-23T02:10:27.835Z,97674.87
2018-09-23T02:12:55.323Z,97673.56
2018-09-23T02:15:22.793Z,97672.91
2018-09-23T02:17:50.221Z,97673.96
2018-09-23T02:20:17.648Z,97671.57
2018-09-23T02:22:45.079Z,97672.38
2018-09-23T02:25:12.536Z,97671.69
2018-09-23T02:27:40.470Z,97666.55
2018-09-23T02:30:07.868Z,97658.91
2018-09-23T02:32:35.538Z,97657.60
2018-09-23T02:35:02.998Z,97652.20
2018-09-23T02:37:30.422Z,97652.81
2018-09-23T02:39:57.859Z,97655.49
2018-09-23T02:42:25.266Z,97655.84
2018-09-23T02:44:52.702Z,97669.37
2018-09-23T02:47:20.105Z,97662.72
2018-09-23T02:49:47.514Z,97660.72
2018-09-23T02:52:14.947Z,97655.53
2018-09-23T02:54:42.379Z,97657.86
2018-09-23T02:57:09.825Z,97659.75
2018-09-23T02:59:37.271Z,97660.77
2018-09-23T03:02:04.693Z,97655.16
2018-09-23T03:04:32.091Z,97653.56
2018-09-23T03:06:59.547Z,97654.50
2018-09-23T03:09:27.024Z,97648.66
2018-09-23T03:11:54.528Z,97649.55
2018-09-23T03:14:21.925Z,97648.39
2018-09-23T03:16:49.334Z,97646.03
2018-09-23T03:19:16.779Z,97643.17
2018-09-23T03:21:44.209Z,97640.87
2018-09-23T03:24:11.685Z,97633.01
2018-09-23T03:26:39.129Z,97638.06
2018-09-23T03:29:06.588Z,97639.39
2018-09-23T03:31:33.989Z,97639.09
2018-09-23T03:34:01.429Z,97630.31
2018-09-23T03:36:29.399Z,97626.66
2018-09-23T03:38:57.145Z,97622.83
2018-09-23T03:41:24.565Z,97610.33
2018-09-23T03:43:52.417Z,97608.09
2018-09-23T03:46:19.897Z,97612.00
2018-09-23T03:48:47.332Z,97605.02
2018-09-23T03:51:14.793Z,97604.38
2018-09-23T03:53:42.466Z,97603.47
2018-09-23T03:56:10.589Z,97602.45
2018-09-23T03:58:38.084Z,97592.84
2018-09-23T04:01:05.524Z,97595.92
2018-09-23T04:03:33.561Z,97597.49
2018-09-23T04:06:01.020Z,97602.27
2018-09-23T04:08:28.470Z,97600.89
2018-09-23T04:10:55.915Z,97598.22
2018-09-23T04:13:23.347Z,97601.80
2018-09-23T04:15:50.794Z,97597.11
2018-09-23T04:18:18.323Z,97590.53
2018-09-23T04:20:45.780Z,97596.61
2018-09-23T04:23:13.176Z,97590.97
2018-09-23T04:25:40.706Z,97588.72
2018-09-23T04:28:08.185Z,97596.18
2018-09-23T04:30:35.635Z,97593.61
2018-09-23T04:33:03.074Z,97600.92
2018-09-23T04:35:30.505Z,97593.59
2018-09-23T04:37:58.589Z,97595.98
2018-09-23T04:40:26.044Z,97589.66
2018-09-23T04:42:53.489Z,97600.44
2018-09-23T04:45:20.914Z,97594.64
2018-09-23T04:47:48.388Z,97597.22
2018-09-23T04:50:15.860Z,97590.09
2018-09-23T04:52:43.308Z,97588.98
2018-09-23T04:55:10.759Z,97587.54
2018-09-23T04:57:38.144Z,97590.81
2018-09-23T05:00:05.546Z,97591.23
2018-09-23T05:02:33.012Z,97584.66
2018-09-23T05:05:00.420Z,97591.42
2018-09-23T05:07:27.870Z,97589.15
2018-09-23T05:09:55.480Z,97582.77
2018-09-23T05:12:22.906Z,97582.13
2018-09-23T05:14:50.319Z,97581.83
2018-09-23T05:17:17.753Z,97579.63
2018-09-23T05:19:45.234Z,97579.65
2018-09-23T05:22:12.641Z,97572.34
2018-09-23T05:24:40.033Z,97572.54
2018-09-23T05:27:07.491Z,97574.75
2018-09-23T05:29:34.897Z,97576.53
2018-09-23T05:32:02.379Z,97576.76
2018-09-23T05:34:29.848Z,97577.73
2018-09-23T05:36:57.282Z,97582.09
2018-09-23T05:39:24.705Z,97576.20
2018-09-23T05:41:52.135Z,97578.00
2018-09-23T05:44:19.604Z,97579.22
2018-09-23T05:46:47.035Z,97578.25
2018-09-23T05:49:14.515Z,97580.18
2018-09-23T05:51:42.079Z,97577.56
2018-09-23T05:54:09.489Z,97579.73
2018-09-23T05:56:37.017Z,97579.04
2018-09-23T05:59:04.440Z,97580.70
2018-09-23T06:01:31.878Z,97577.36
2018-09-23T06:03:59.315Z,97577.86
2018-09-23T06:06:27.212Z,97574.42
2018-09-23T06:08:54.671Z,97575.38
2018-09-23T06:11:22.089Z,97573.03
2018-09-23T06:13:49.562Z,97572.30
2018-09-23T06:16:16.996Z,97567.16
2018-09-23T06:18:44.439Z,97571.44
2018-09-23T06:21:11.825Z,97572.39
2018-09-23T06:23:39.283Z,97570.34
2018-09-23T06:26:06.715Z,97571.91
2018-09-23T06:28:34.161Z,97574.79
2018-09-23T06:31:01.589Z,97579.73
2018-09-23T06:33:29.028Z,97578.07
2018-09-23T06:35:56.566Z,97582.34
2018-09-23T06:38:24.007Z,97574.72
2018-09-23T06:40:51.470Z,97570.57
2018-09-23T06:43:19.140Z,97567.97
2018-09-23T06:45:46.665Z,97559.67
2018-09-23T06:48:14.283Z,97562.14
2018-09-23T06:50:41.746Z,97567.53
2018-09-23T06:53:09.152Z,97557.16
2018-09-23T06:55:36.619Z,97558.27
2018-09-23T06:58:04.039Z,97555.43
2018-09-23T07:00:31.558Z,97561.81
2018-09-23T07:02:58.979Z,97560.42
2018-09-23T07:05:26.437Z,97563.53
2018-09-23T07:07:53.890Z,97569.65
2018-09-23T07:10:21.402Z,97570.63
2018-09-23T07:12:48.762Z,97571.04
2018-09-23T07:15:16.204Z,97577.63
2018-09-23T07:17:43.605Z,97578.98
2018-09-23T07:20:11.151Z,97578.31
2018-09-23T07:22:39.479Z,97588.81
2018-09-23T07:25:06.972Z,97585.27
2018-09-23T07:27:34.413Z,97580.70
2018-09-23T07:30:01.990Z,97591.08
2018-09-23T07:32:29.363Z,97590.59
2018-09-23T07:34:56.802Z,97587.06
2018-09-23T07:37:24.331Z,97592.50
2018-09-23T07:39:51.834Z,97586.22
2018-09-23T07:42:20.039Z,97590.58
2018-09-23T07:44:47.513Z,97578.55
2018-09-23T07:47:14.989Z,97577.27
2018-09-23T07:49:42.935Z,97577.19
2018-09-23T07:52:10.430Z,97582.69
2018-09-23T07:54:37.867Z,97582.86
2018-09-23T07:57:05.338Z,97592.92
2018-09-23T07:59:32.778Z,97594.78
2018-09-23T08:02:00.352Z,97593.00
2018-09-23T08:04:27.839Z,97587.06
2018-09-23T08:06:55.316Z,97580.81
2018-09-23T08:09:22.837Z,97581.29
2018-09-23T08:11:50.295Z,97573.82
2018-09-23T08:14:17.985Z,97576.12
2018-09-23T08:16:45.300Z,97580.19
2018-09-23T08:19:12.829Z,97584.92
2018-09-23T08:21:40.507Z,97586.62
2018-09-23T08:24:07.974Z,97578.83
2018-09-23T08:26:35.480Z,97583.19
2018-09-23T08:29:02.958Z,97585.78
2018-09-23T08:31:30.444Z,97585.95
2018-09-23T08:33:57.893Z,97589.86
2018-09-23T08:36:25.299Z,97586.20
2018-09-23T08:38:52.752Z,97585.86
2018-09-23T08:41:20.248Z,97586.76
2018-09-23T08:43:47.698Z,97587.58
2018-09-23T08:46:15.142Z,97578.47
2018-09-23T08:48:42.628Z,97586.25
2018-09-23T08:51:10.066Z,97588.03
2018-09-23T08:53:37.506Z,97593.80
2018-09-23T08:56:04.911Z,97593.33
2018-09-23T08:58:32.465Z,97591.56
2018-09-23T09:00:59.861Z,97578.59
2018-09-23T09:03:27.277Z,97584.84
2018-09-23T09:05:54.823Z,97582.72
2018-09-23T09:08:22.241Z,97581.83
2018-09-23T09:10:49.717Z,97580.78
2018-09-23T09:13:17.195Z,97580.95
2018-09-23T09:15:44.644Z,97577.25
2018-09-23T09:18:12.191Z,97571.80
2018-09-23T09:20:39.592Z,97571.88
2018-09-23T09:23:07.101Z,97568.72
2018-09-23T09:25:34.663Z,97570.17
2018-09-23T09:28:02.249Z,97561.36
2018-09-23T09:30:29.700Z,97554.30
2018-09-23T09:32:57.127Z,97554.97
2018-09-23T09:35:24.663Z,97557.80
2018-09-23T09:37:52.104Z,97552.75
2018-09-23T09:40:19.563Z,97550.32
2018-09-23T09:42:47.681Z,97555.08
2018-09-23T09:45:15.082Z,97547.19
2018-09-23T09:47:42.561Z,97545.06
2018-09-23T09:50:10.110Z,97549.67
2018-09-23T09:52:37.546Z,97546.61
2018-09-23T09:55:05.014Z,97535.78
2018-09-23T09:57:32.480Z,97538.37
2018-09-23T09:59:59.907Z,97526.13
2018-09-23T10:02:27.395Z,97524.58
2018-09-23T10:04:54.966Z,97528.51
2018-09-23T10:07:22.448Z,97516.97
2018-09-23T10:09:49.879Z,97512.38
2018-09-23T10:12:16.838Z,97509.16
2018-09-23T10:14:43.817Z,97506.48
2018-09-23T10:17:10.856Z,97508.64
2018-09-23T10:19:37.897Z,97503.72
2018-09-23T10:22:04.919Z,97505.93
2018-09-23T10:24:31.896Z,97497.20
2018-09-23T10:26:59.327Z,97505.88
2018-09-23T10:29:26.280Z,97483.39
2018-09-23T10:31:53.328Z,97477.70
2018-09-23T10:34:20.303Z,97486.50
2018-09-23T10:36:47.440Z,97468.36
2018-09-23T10:39:14.505Z,97454.31
2018-09-23T10:41:42.070Z,97452.03
2018-09-23T10:44:09.576Z,97455.53
2018-09-23T10:46:37.170Z,97450.77
2018-09-23T10:49:04.616Z,97450.36
2018-09-23T10:51:32.063Z,97442.96
2018-09-23T10:53:59.281Z,97433.89
2018-09-23T10:56:26.372Z,97431.91
2018-09-23T10:58:53.350Z,97415.69
2018-09-23T11:01:20.388Z,97420.16
2018-09-23T11:03:47.479Z,97411.36
2018-09-23T11:06:14.424Z,97400.66
2018-09-23T11:08:41.480Z,97394.84
2018-09-23T11:11:08.980Z,97394.73
2018-09-23T11:13:36.408Z,97399.81
2018-09-23T11:16:03.853Z,97403.64
2018-09-23T11:18:31.518Z,97401.67
2018-09-23T11:20:58.984Z,97398.95
2018-09-23T11:23:26.592Z,97394.53
2018-09-23T11:25:54.034Z,97381.72
2018-09-23T11:28:21.537Z,97377.66
2018-09-23T11:30:49.162Z,97379.33
2018-09-23T11:33:16.636Z,97380.83
2018-09-23T11:35:44.097Z,97363.39
2018-09-23T11:38:11.573Z,97368.00
2018-09-23T11:40:39.212Z,97358.97
2018-09-23T11:43:06.680Z,97351.19
2018-09-23T11:45:34.143Z,97333.81
2018-09-23T11:48:01.628Z,97339.98
2018-09-23T11:50:29.051Z,97338.70
2018-09-23T11:52:56.512Z,97330.63
2018-09-23T11:55:24.581Z,97322.73
2018-09-23T11:57:51.974Z,97324.71
2018-09-23T12:00:20.083Z,97325.35
2018-09-23T12:02:49.338Z,97326.86
2018-09-23T12:05:16.780Z,97324.41
2018-09-23T12:07:44.254Z,97322.94
2018-09-23T12:10:11.787Z,97304.66
2018-09-23T12:12:39.235Z,97305.20
2018-09-23T12:15:06.688Z,97317.53
2018-09-23T12:17:34.302Z,97316.86
2018-09-23T12:20:01.702Z,97304.14
2018-09-23T12:22:29.288Z,97307.70
2018-09-23T12:24:56.842Z,97308.22
2018-09-23T12:27:24.297Z,97298.47
2018-09-23T12:29:51.678Z,97289.38
2018-09-23T12:32:19.131Z,97294.42
2018-09-23T12:34:46.556Z,97289.73
2018-09-23T12:37:14.959Z,97287.89
2018-09-23T12:39:42.483Z,97290.22
2018-09-23T12:42:09.924Z,97269.73
2018-09-23T12:44:37.369Z,97269.89
2018-09-23T12:47:04.864Z,97254.78
2018-09-23T12:49:32.341Z,97249.55
2018-09-23T12:51:59.775Z,97271.55
2018-09-23T12:54:27.207Z,97271.84
2018-09-23T12:56:54.621Z,97266.77
2018-09-23T12:59:22.168Z,97254.47
2018-09-23T13:01:49.750Z,97249.84
2018-09-23T13:04:16.811Z,97240.29
2018-09-23T13:06:44.046Z,97237.76
2018-09-23T13:09:11.043Z,97229.69
2018-09-23T13:11:38.031Z,97214.98
2018-09-23T13:14:05.529Z,97227.09
2018-09-23T13:16:32.988Z,97229.10
2018-09-23T13:19:00.400Z,97232.08
2018-09-23T13:21:27.824Z,97237.08
2018-09-23T13:23:55.256Z,97226.20
2018-09-23T13:26:22.798Z,97227.11
2018-09-23T13:28:50.229Z,97225.06
2018-09-23T13:31:17.691Z,97219.30
2018-09-23T13:33:45.134Z,97216.46
2018-09-23T13:36:12.584Z,97211.73
2018-09-23T13:38:40.118Z,97209.97
2018-09-23T13:41:07.578Z,97215.87
2018-09-23T13:43:35.030Z,97211.58
2018-09-23T13:46:02.564Z,97214.45
2018-09-23T13:48:30.012Z,97219.94
2018-09-23T13:50:57.478Z,97225.69
2018-09-23T13:53:25.694Z,97215.33
2018-09-23T13:55:53.315Z,97212.52
2018-09-23T13:58:20.931Z,97220.60
2018-09-23T14:00:48.698Z,97205.82
2018-09-23T14:03:16.230Z,97213.74
2018-09-23T14:05:43.742Z,97210.78
2018-09-23T14:08:11.702Z,97209.62
2018-09-23T14:10:39.179Z,97207.58
2018-09-23T14:13:07.143Z,97208.59
2018-09-23T14:15:34.589Z,97209.33
2018-09-23T14:18:02.041Z,97215.52
2018-09-23T14:20:29.475Z,97206.34
2018-09-23T14:22:56.957Z,97208.23
2018-09-23T14:25:24.795Z,97189.37
2018-09-23T14:27:52.329Z,97197.19
2018-09-23T14:30:19.785Z,97192.27
2018-09-23T14:32:48.001Z,97188.77
2018-09-23T14:35:15.466Z,97179.41
2018-09-23T14:37:44.046Z,97171.51
2018-09-23T14:40:11.760Z,97169.24
2018-09-23T14:42:39.183Z,97162.40
2018-09-23T14:45:06.632Z,97157.58
2018-09-23T14:47:34.092Z,97167.98
2018-09-23T14:50:01.575Z,97162.42
2018-09-23T14:52:28.981Z,97169.34
2018-09-23T14:54:56.554Z,97157.86
2018-09-23T14:57:23.877Z,97155.73
2018-09-23T14:59:54.364Z,97151.98
2018-09-23T15:02:18.866Z,97146.10
2018-09-23T15:04:46.350Z,97151.70
2018-09-23T15:07:13.883Z,97151.27
2018-09-23T15:09:41.312Z,97155.56
2018-09-23T15:12:08.746Z,97168.03
2018-09-23T15:14:36.316Z,97174.11
2018-09-23T15:17:03.756Z,97171.94
2018-09-23T15:19:31.197Z,97174.92
2018-09-23T15:21:58.661Z,97174.03
2018-09-23T15:24:26.085Z,97180.23
2018-09-23T15:26:53.558Z,97187.05
2018-09-23T15:29:21.435Z,97183.55
2018-09-23T15:31:48.881Z,97178.53
2018-09-23T15:34:16.405Z,97176.06
2018-09-23T15:36:43.902Z,97180.14
2018-09-23T15:39:11.328Z,97170.09
2018-09-23T15:41:38.762Z,97160.37
2018-09-23T15:44:06.216Z,97152.95
2018-09-23T15:46:33.628Z,97152.16
2018-09-23T15:49:01.133Z,97138.31
2018-09-23T15:51:28.597Z,97138.13
2018-09-23T15:53:56.028Z,97148.20
2018-09-23T15:56:23.483Z,97155.80
2018-09-23T15:58:50.950Z,97164.14
2018-09-23T16:01:18.436Z,97161.77
2018-09-23T16:03:46.570Z,97153.13
2018-09-23T16:06:14.046Z,97144.00
2018-09-23T16:08:41.494Z,97141.67
2018-09-23T16:11:08.956Z,97136.58
2018-09-23T16:13:36.394Z,97135.60
2018-09-23T16:16:03.902Z,97133.88
2018-09-23T16:18:31.554Z,97144.38
2018-09-23T16:20:58.905Z,97142.83
2018-09-23T16:23:26.375Z,97153.19
2018-09-23T16:25:54.066Z,97157.04
2018-09-23T16:28:21.480Z,97147.30
2018-09-23T16:30:48.931Z,97150.61
2018-09-23T16:33:16.380Z,97141.70
2018-09-23T16:35:43.907Z,97136.63
2018-09-23T16:38:11.357Z,97132.89
2018-09-23T16:40:38.808Z,97124.81
2018-09-23T16:43:06.284Z,97118.38
2018-09-23T16:45:33.977Z,97120.66
2018-09-23T16:48:01.415Z,97126.53
2018-09-23T16:50:28.890Z,97122.17
2018-09-23T16:52:56.383Z,97124.44
2018-09-23T16:55:23.909Z,97139.45
2018-09-23T16:57:51.416Z,97147.33
2018-09-23T17:00:18.873Z,97147.85
2018-09-23T17:02:46.410Z,97162.12
2018-09-23T17:05:13.897Z,97159.73
2018-09-23T17:07:41.330Z,97166.25
2018-09-23T17:10:08.776Z,97175.89
2018-09-23T17:12:36.174Z,97170.48
2018-09-23T17:15:03.157Z,97184.25
2018-09-23T17:17:30.626Z,97193.45
2018-09-23T17:19:58.058Z,97177.08
2018-09-23T17:22:25.489Z,97190.95
2018-09-23T17:24:52.927Z,97188.49
2018-09-23T17:27:20.391Z,97192.94
2018-09-23T17:29:47.897Z,97196.42
2018-09-23T17:32:15.358Z,97206.84
2018-09-23T17:34:42.464Z,97204.34
2018-09-23T17:37:09.438Z,97214.78
2018-09-23T17:39:36.492Z,97207.66
2018-09-23T17:42:03.908Z,97210.72
2018-09-23T17:44:31.398Z,97213.34
2018-09-23T17:46:59.040Z,97218.83
2018-09-23T17:49:26.499Z,97206.13
2018-09-23T17:51:54.404Z,97193.09
2018-09-23T17:54:21.888Z,97222.56
2018-09-23T17:56:48.878Z,97227.43
2018-09-23T17:59:15.952Z,97229.83
2018-09-23T18:01:43.459Z,97230.91
2018-09-23T18:04:10.924Z,97240.34
2018-09-23T18:06:38.031Z,97246.45
2018-09-23T18:09:05.426Z,97247.39
2018-09-23T18:11:32.940Z,97237.86
2018-09-23T18:13:59.865Z,97240.66
2018-09-23T18:16:26.852Z,97239.59
2018-09-23T18:18:54.300Z,97235.66
2018-09-23T18:21:21.728Z,97235.84
2018-09-23T18:23:49.302Z,97242.14
2018-09-23T18:26:16.297Z,97248.75
2018-09-23T18:28:43.262Z,97266.77
2018-09-23T18:31:10.255Z,97264.09
2018-09-23T18:33:37.243Z,97279.77
2018-09-23T18:36:04.190Z,97277.33
2018-09-23T18:38:31.198Z,97282.93
2018-09-23T18:40:58.161Z,97279.25
2018-09-23T18:43:25.134Z,97278.53
2018-09-23T18:45:52.107Z,97282.86
2018-09-23T18:48:19.039Z,97283.00
2018-09-23T18:50:46.107Z,97281.17
2018-09-23T18:53:13.061Z,97269.83
2018-09-23T18:55:40.011Z,97263.67
2018-09-23T18:58:07.018Z,97281.17
2018-09-23T19:00:34.012Z,97286.58
2018-09-23T19:03:00.989Z,97287.92
2018-09-23T19:05:27.952Z,97297.86
2018-09-23T19:07:54.947Z,97296.27
2018-09-23T19:10:21.939Z,97298.55
2018-09-23T19:12:48.935Z,97291.22
2018-09-23T19:15:15.927Z,97284.72
2018-09-23T19:17:43.330Z,97291.42
2018-09-23T19:20:10.731Z,97306.14
2018-09-23T19:22:38.160Z,97302.53
2018-09-23T19:25:05.599Z,97307.66
2018-09-23T19:27:33.057Z,97307.03
2018-09-23T19:30:00.543Z,97298.95
2018-09-23T19:32:28.050Z,97297.62
2018-09-23T19:34:55.470Z,97298.16
2018-09-23T19:37:22.936Z,97297.23
2018-09-23T19:39:50.338Z,97295.85
2018-09-23T19:42:17.802Z,97294.44
2018-09-23T19:44:45.239Z,97290.34
2018-09-23T19:47:12.712Z,97286.39
2018-09-23T19:49:40.157Z,97283.46
2018-09-23T19:52:07.627Z,97294.02
2018-09-23T19:54:35.128Z,97285.73
2018-09-23T19:57:02.556Z,97279.64
2018-09-23T19:59:30.032Z,97274.63
2018-09-23T20:01:57.516Z,97270.30
2018-09-23T20:04:24.985Z,97271.13
2018-09-23T20:06:52.720Z,97269.33
2018-09-23T20:09:20.140Z,97264.24
2018-09-23T20:11:47.823Z,97256.98
2018-09-23T20:14:15.230Z,97252.62
2018-09-23T20:16:42.628Z,97260.42
2018-09-23T20:19:10.109Z,97249.77
2018-09-23T20:21:38.212Z,97249.45
2018-09-23T20:24:05.675Z,97247.67
2018-09-23T20:26:33.700Z,97246.22
2018-09-23T20:29:01.127Z,97248.80
2018-09-23T20:31:28.520Z,97246.80
2018-09-23T20:33:56.044Z,97235.28
2018-09-23T20:36:23.468Z,97247.08
2018-09-23T20:38:51.076Z,97249.34
2018-09-23T20:41:18.503Z,97254.46
2018-09-23T20:43:45.996Z,97261.39
2018-09-23T20:46:13.401Z,97295.94
2018-09-23T20:48:40.825Z,97326.91
2018-09-23T20:51:08.282Z,97347.10
2018-09-23T20:53:35.924Z,97331.94
2018-09-23T20:56:03.361Z,97363.13
2018-09-23T20:58:30.777Z,97378.86
2018-09-23T21:00:58.206Z,97392.52
2018-09-23T21:03:25.694Z,97401.84
2018-09-23T21:05:53.167Z,97416.14
2018-09-23T21:08:20.597Z,97437.66
2018-09-23T21:10:48.104Z,97446.61
2018-09-23T21:13:15.545Z,97459.34
2018-09-23T21:15:42.997Z,97455.67
2018-09-23T21:18:10.399Z,97469.40
2018-09-23T21:20:37.848Z,97470.21
2018-09-23T21:23:05.272Z,97499.11
2018-09-23T21:25:32.751Z,97533.05
2018-09-23T21:28:00.183Z,97568.31
2018-09-23T21:30:27.615Z,97572.95
2018-09-23T21:32:55.038Z,97590.90
2018-09-23T21:35:22.510Z,97597.03
2018-09-23T21:37:50.001Z,97602.99
2018-09-23T21:40:17.477Z,97608.18
2018-09-23T21:42:44.923Z,97617.52
2018-09-23T21:45:12.323Z,97623.17
2018-09-23T21:47:39.740Z,97615.33
2018-09-23T21:50:07.142Z,97629.72
2018-09-23T21:52:34.585Z,97643.33
2018-09-23T21:55:02.007Z,97653.22
2018-09-23T21:57:29.406Z,97671.88
2018-09-23T21:59:56.840Z,97679.64
2018-09-23T22:02:24.249Z,97686.39
2018-09-23T22:04:51.663Z,97691.73
2018-09-23T22:07:19.114Z,97700.55
2018-09-23T22:09:46.580Z,97705.45
2018-09-23T22:12:14.034Z,97695.48
2018-09-23T22:14:41.430Z,97699.26
2018-09-23T22:17:08.844Z,97718.83
2018-09-23T22:19:36.322Z,97720.00
2018-09-23T22:22:03.731Z,97725.77
2018-09-23T22:24:31.156Z,97726.90
2018-09-23T22:26:58.591Z,97731.71
2018-09-23T22:29:26.034Z,97724.32
2018-09-23T22:31:53.499Z,97727.92
2018-09-23T22:34:20.899Z,97729.02
2018-09-23T22:36:48.308Z,97728.22
2018-09-23T22:39:15.765Z,97737.53
2018-09-23T22:41:43.186Z,97743.20
2018-09-23T22:44:10.639Z,97751.81
2018-09-23T22:46:38.073Z,97758.24
2018-09-23T22:49:05.556Z,97751.72
2018-09-23T22:51:33.001Z,97757.38
2018-09-23T22:54:00.472Z,97758.30
2018-09-23T22:56:27.904Z,97783.30
2018-09-23T22:58:55.461Z,97805.64
2018-09-23T23:01:22.846Z,97802.11
2018-09-23T23:03:50.287Z,97805.11
2018-09-23T23:06:17.690Z,97808.89
2018-09-23T23:08:45.203Z,97807.96
2018-09-23T23:11:12.678Z,97814.59
2018-09-23T23:13:40.103Z,97818.88
2018-09-23T23:16:07.494Z,97817.23
2018-09-23T23:18:34.931Z,97816.25
2018-09-23T23:21:02.355Z,97815.60
2018-09-23T23:23:29.753Z,97824.97
2018-09-23T23:25:57.184Z,97833.53
2018-09-23T23:28:24.616Z,97847.18
2018-09-23T23:30:52.041Z,97840.91
2018-09-23T23:33:19.530Z,97849.91
2018-09-23T23:35:47.028Z,97849.45
2018-09-23T23:38:14.486Z,97851.86
2018-09-23T23:40:41.922Z,97864.74
2018-09-23T23:43:09.543Z,97865.05
2018-09-23T23:45:36.992Z,97872.23
2018-09-23T23:48:04.445Z,97881.98
2018-09-23T23:50:31.884Z,97879.41
2018-09-23T23:52:59.339Z,97880.07
2018-09-23T23:55:26.745Z,97875.23
2018-09-23T23:57:54.183Z,97877.11
